This demonstration page uses our WeatherBlox Daily Observations layout. Learn more.

36.19886, -115.1175

Hourly Observations for November 2, 2018

Temp ( °F °C ) Dew Point ( °F °C ) Humidity (%) Winds ( mph kmh ) Pressure ( in mb ) Visibility ( mi km ) Precip ( " mm )
12:53 am 00:53 Clear 61 16.1 35 1.7 38 38 NNW 3 6 30.18 1022 10 16.09344 0 0
1:53 am 01:53 Clear 62 16.7 34 1.1 35 35 N 3 6 30.18 1022 10 16.09344 0 0
2:53 am 02:53 Clear 61 16.1 35 1.7 38 38 NW 3 6 30.18 1022 10 16.09344 0 0
3:53 am 03:53 Clear 59 15 35 1.7 41 41 W 5 7 30.18 1022 10 16.09344 0 0
4:53 am 04:53 Clear 58 14.4 34 1.1 41 41 WNW 7 11 30.18 1022 10 16.09344 0 0
5:53 am 05:53 Clear 57 13.9 35 1.7 44 44 NW 6 9 30.18 1022 10 16.09344 0 0
6:53 am 06:53 Clear 57 13.9 36 2.2 45 45 NW 6 9 30.18 1022 10 16.09344 0 0
7:53 am 07:53 Sunny 60 15.6 35 1.7 39 39 NNW 8 13 30.18 1022 10 16.09344 0 0
8:53 am 08:53 Sunny 64 17.8 36 2.2 35 35 Calm 30.21 1023 10 16.09344 0 0
9:53 am 09:53 Sunny 68 20 35 1.7 30 30 N 6 9 30.18 1022 10 16.09344 0 0
10:53 am 10:53 Sunny 71 21.7 36 2.2 28 28 Calm 30.18 1022 10 16.09344 0 0
11:53 am 11:53 Sunny 71 21.7 37 2.8 29 29 Calm 30.15 1021 10 16.09344 0 0
12:53 pm 12:53 Sunny 75 23.9 36 2.2 24 24 SSE 7 11 30.09 1019 10 16.09344 0 0
1:53 pm 13:53 Sunny 77 25 36 2.2 23 23 SE 6 9 30.06 1018 10 16.09344 0 0
2:53 pm 14:53 Sunny 78 25.6 36 2.2 22 22 S 7 11 30.03 1017 10 16.09344 0 0
3:53 pm 15:53 Sunny 78 25.6 35 1.7 21 21 SE 3 6 30 1016 10 16.09344 0 0
4:53 pm 16:53 Sunny 78 25.6 35 1.7 21 21 Calm 30 1016 10 16.09344 0 0
5:53 pm 17:53 Clear 75 23.9 36 2.2 24 24 SSE 5 7 29.97 1015 10 16.09344 0 0
6:53 pm 18:53 Clear 73 22.8 36 2.2 26 26 Calm 30 1016 10 16.09344 0 0
7:53 pm 19:53 Clear 71 21.7 37 2.8 29 29 Calm 30 1016 10 16.09344 0 0
8:53 pm 20:53 Clear 69 20.6 39 3.9 33 33 NNW 6 9 30 1016 10 16.09344 0 0
9:53 pm 21:53 Clear 66 18.9 39 3.9 37 37 NW 6 9 30 1016 10 16.09344 0 0
10:53 pm 22:53 Clear 71 21.7 30 -1.1 22 22 WNW 8 13 29.97 1015 10 16.09344 0 0
11:53 pm 23:53 Clear 70 21.1 29 -1.7 22 22 WNW 10 17 29.97 1015 10 16.09344 0 0

Powered by AerisWeather